Time,TemperatureF,DewpointF,PressureIn,WindDirection,WindDirectionDegrees,WindSpeedMPH,WindSpeedGustMPH,Humidity,HourlyPrecipIn,Conditions,Clouds,dailyrainin,SoftwareType,DateUTC
2013-02-15 00:02:00,36.1,35.1,30.05,SE,126,0.0,0.0,96,0.00,,,0.00,meteohub,2013-02-15 05:02:00,
2013-02-15 00:07:00,36.0,34.9,30.05,SE,126,0.0,0.0,96,0.00,,,0.00,meteohub,2013-02-15 05:07:00,
2013-02-15 00:12:00,35.8,34.5,30.05,SE,126,0.0,0.0,95,0.00,,,0.00,meteohub,2013-02-15 05:12:00,
2013-02-15 00:17:00,35.6,34.3,30.05,SE,126,0.0,0.0,95,0.00,,,0.00,meteohub,2013-02-15 05:17:00,
2013-02-15 00:22:00,35.8,34.7,30.06,SE,126,0.0,0.0,96,0.00,,,0.00,meteohub,2013-02-15 05:22:00,
2013-02-15 00:27:00,35.6,34.5,30.05,SE,126,0.0,0.0,96,0.00,,,0.00,meteohub,2013-02-15 05:27:00,
2013-02-15 00:32:00,35.4,34.3,30.04,SE,126,0.0,0.0,96,0.00,,,0.00,meteohub,2013-02-15 05:32:00,
2013-02-15 00:37:00,35.2,34.0,30.05,SE,126,0.0,0.0,95,0.00,,,0.00,meteohub,2013-02-15 05:37:00,
2013-02-15 00:42:00,35.1,33.8,30.05,SE,126,0.0,0.0,95,0.00,,,0.00,meteohub,2013-02-15 05:42:00,
2013-02-15 00:47:00,35.1,34.0,30.05,SE,126,0.0,0.0,96,0.00,,,0.00,meteohub,2013-02-15 05:47:00,
2013-02-15 00:52:00,34.9,33.8,30.06,SE,126,0.0,0.0,96,0.00,,,0.00,meteohub,2013-02-15 05:52:00,
2013-02-15 00:57:00,34.7,33.6,30.06,SE,126,0.0,0.0,96,0.00,,,0.00,meteohub,2013-02-15 05:57:00,
2013-02-15 01:03:00,34.5,33.3,30.05,SE,126,0.0,0.0,95,0.00,,,0.00,meteohub,2013-02-15 06:03:00,
2013-02-15 01:08:00,34.3,33.1,30.05,SE,126,0.0,0.0,95,0.00,,,0.00,meteohub,2013-02-15 06:08:00,
2013-02-15 01:13:00,34.3,33.3,30.05,SE,126,0.0,0.0,96,0.00,,,0.00,meteohub,2013-02-15 06:13:00,
2013-02-15 01:18:00,34.2,33.1,30.04,SE,126,0.0,0.0,96,0.00,,,0.00,meteohub,2013-02-15 06:18:00,
2013-02-15 01:23:00,34.0,32.7,30.04,SE,126,0.0,0.0,95,0.00,,,0.00,meteohub,2013-02-15 06:23:00,
2013-02-15 01:28:00,33.8,32.7,30.05,SE,126,0.0,0.0,96,0.00,,,0.00,meteohub,2013-02-15 06:28:00,
2013-02-15 01:33:00,33.6,32.5,30.05,SE,126,0.0,0.0,96,0.00,,,0.00,meteohub,2013-02-15 06:33:00,
2013-02-15 01:38:00,33.4,32.2,30.05,SE,126,0.0,0.0,95,0.00,,,0.00,meteohub,2013-02-15 06:38:00,
2013-02-15 01:43:00,33.4,32.4,30.06,SE,126,0.0,0.0,96,0.00,,,0.00,meteohub,2013-02-15 06:43:00,
2013-02-15 01:48:00,33.4,32.4,30.05,SE,126,0.0,0.0,96,0.00,,,0.00,meteohub,2013-02-15 06:48:00,
2013-02-15 01:53:00,33.3,32.2,30.05,SE,126,0.0,0.0,96,0.00,,,0.00,meteohub,2013-02-15 06:53:00,
2013-02-15 01:58:00,33.1,32.0,30.05,SE,126,0.0,0.0,96,0.00,,,0.00,meteohub,2013-02-15 06:58:00,
2013-02-15 02:03:00,32.7,31.5,30.05,SE,126,0.0,0.0,95,0.00,,,0.00,meteohub,2013-02-15 07:03:00,
2013-02-15 02:08:00,32.5,31.5,30.05,SE,126,0.0,0.0,96,0.00,,,0.00,meteohub,2013-02-15 07:08:00,
2013-02-15 02:13:00,32.5,31.5,30.05,SE,126,0.0,0.0,96,0.00,,,0.00,meteohub,2013-02-15 07:13:00,
2013-02-15 02:18:00,32.5,31.5,30.04,SE,126,0.0,0.0,96,0.00,,,0.00,meteohub,2013-02-15 07:18:00,
2013-02-15 02:23:00,32.4,31.1,30.05,SE,126,0.0,0.0,95,0.00,,,0.00,meteohub,2013-02-15 07:23:00,
2013-02-15 02:28:00,32.2,31.1,30.05,SE,126,0.0,0.0,96,0.00,,,0.00,meteohub,2013-02-15 07:28:00,
2013-02-15 02:33:00,32.0,30.9,30.05,SE,126,0.0,0.0,96,0.00,,,0.00,meteohub,2013-02-15 07:33:00,
2013-02-15 02:38:00,32.0,30.9,30.05,SE,126,0.0,0.0,96,0.00,,,0.00,meteohub,2013-02-15 07:38:00,
2013-02-15 02:43:00,31.8,30.7,30.05,SE,126,0.0,0.0,96,0.00,,,0.00,meteohub,2013-02-15 07:43:00,
2013-02-15 02:48:00,32.0,30.9,30.05,SE,126,0.0,0.0,96,0.00,,,0.00,meteohub,2013-02-15 07:48:00,
2013-02-15 02:53:00,32.0,30.9,30.05,SE,126,0.0,0.0,96,0.00,,,0.00,meteohub,2013-02-15 07:53:00,
2013-02-15 02:58:00,32.0,30.9,30.05,SE,126,0.0,0.0,96,0.00,,,0.00,meteohub,2013-02-15 07:58:00,
2013-02-15 03:03:00,32.2,31.1,30.05,SE,126,0.0,0.0,96,0.00,,,0.00,meteohub,2013-02-15 08:03:00,
2013-02-15 03:08:00,32.4,31.3,30.05,SE,126,0.0,0.0,96,0.00,,,0.00,meteohub,2013-02-15 08:08:00,
2013-02-15 03:13:00,32.4,31.3,30.05,SE,126,0.0,0.0,96,0.00,,,0.00,meteohub,2013-02-15 08:13:00,
2013-02-15 03:18:00,32.2,31.1,30.05,SE,126,0.0,0.0,96,0.00,,,0.00,meteohub,2013-02-15 08:18:00,
2013-02-15 03:23:00,32.0,30.9,30.05,SE,126,0.0,0.0,96,0.00,,,0.00,meteohub,2013-02-15 08:23:00,
2013-02-15 03:28:00,32.2,31.1,30.05,SE,126,0.0,0.0,96,0.00,,,0.00,meteohub,2013-02-15 08:28:00,
2013-02-15 03:33:00,32.4,31.3,30.05,SE,126,0.0,0.0,96,0.00,,,0.00,meteohub,2013-02-15 08:33:00,
2013-02-15 03:38:00,32.4,31.3,30.05,SE,126,0.0,0.0,96,0.00,,,0.00,meteohub,2013-02-15 08:38:00,
2013-02-15 03:43:00,32.2,31.1,30.05,SE,126,0.0,0.0,96,0.00,,,0.00,meteohub,2013-02-15 08:43:00,
2013-02-15 03:48:00,32.0,30.9,30.05,SE,126,0.0,0.0,96,0.00,,,0.00,meteohub,2013-02-15 08:48:00,
2013-02-15 03:53:00,32.2,31.1,30.05,SE,126,0.0,0.0,96,0.00,,,0.00,meteohub,2013-02-15 08:53:00,
2013-02-15 03:58:00,32.4,31.6,30.04,SE,126,0.0,0.0,97,0.00,,,0.00,meteohub,2013-02-15 08:58:00,
2013-02-15 04:03:00,32.4,31.3,30.04,SE,126,0.0,0.0,96,0.00,,,0.00,meteohub,2013-02-15 09:03:00,
2013-02-15 04:08:00,32.4,31.3,30.04,SE,126,0.0,0.0,96,0.00,,,0.00,meteohub,2013-02-15 09:08:00,
2013-02-15 04:13:00,32.4,31.3,30.04,SE,126,0.0,0.0,96,0.00,,,0.00,meteohub,2013-02-15 09:13:00,
2013-02-15 04:18:00,32.4,31.3,30.04,SE,126,0.0,0.0,96,0.00,,,0.00,meteohub,2013-02-15 09:18:00,
2013-02-15 04:23:00,32.2,31.1,30.04,SE,126,0.0,0.0,96,0.00,,,0.00,meteohub,2013-02-15 09:23:00,
2013-02-15 04:28:00,32.2,31.1,30.04,SE,126,0.0,0.0,96,0.00,,,0.00,meteohub,2013-02-15 09:28:00,
2013-02-15 04:33:00,32.0,30.9,30.04,SE,126,0.0,0.0,96,0.00,,,0.00,meteohub,2013-02-15 09:33:00,
2013-02-15 04:38:00,31.8,30.7,30.04,SE,126,0.0,0.0,96,0.00,,,0.00,meteohub,2013-02-15 09:38:00,
2013-02-15 04:43:00,31.8,30.7,30.04,SE,126,0.0,0.0,96,0.00,,,0.00,meteohub,2013-02-15 09:43:00,
2013-02-15 04:48:00,32.4,31.6,30.04,SE,126,0.0,0.0,97,0.00,,,0.00,meteohub,2013-02-15 09:48:00,
2013-02-15 04:53:00,32.5,31.8,30.04,SE,126,0.0,0.0,97,0.00,,,0.00,meteohub,2013-02-15 09:53:00,
2013-02-15 04:58:00,32.5,31.8,30.04,SE,126,0.0,0.0,97,0.00,,,0.00,meteohub,2013-02-15 09:58:00,
2013-02-15 05:03:00,32.4,31.3,30.04,SE,126,0.0,0.0,96,0.00,,,0.00,meteohub,2013-02-15 10:03:00,
2013-02-15 05:08:00,32.0,30.9,30.03,SE,126,0.0,0.0,96,0.00,,,0.00,meteohub,2013-02-15 10:08:00,
2013-02-15 05:13:00,31.6,30.6,30.03,SE,126,0.0,0.0,96,0.00,,,0.00,meteohub,2013-02-15 10:13:00,
2013-02-15 05:18:00,31.5,30.4,30.03,SE,126,0.0,0.0,96,0.00,,,0.00,meteohub,2013-02-15 10:18:00,
2013-02-15 05:23:00,31.3,30.2,30.04,SE,126,0.0,0.0,96,0.00,,,0.00,meteohub,2013-02-15 10:23:00,
2013-02-15 05:28:00,31.1,30.0,30.04,SE,126,0.0,0.0,96,0.00,,,0.00,meteohub,2013-02-15 10:28:00,
2013-02-15 05:33:00,30.9,29.8,30.04,SE,126,0.0,0.0,96,0.00,,,0.00,meteohub,2013-02-15 10:33:00,
2013-02-15 05:38:00,30.9,30.2,30.04,SE,126,0.0,0.0,97,0.00,,,0.00,meteohub,2013-02-15 10:38:00,
2013-02-15 05:43:00,30.9,30.2,30.04,SE,126,0.0,0.0,97,0.00,,,0.00,meteohub,2013-02-15 10:43:00,
2013-02-15 05:48:00,30.9,30.2,30.04,SE,126,0.0,0.0,97,0.00,,,0.00,meteohub,2013-02-15 10:48:00,
2013-02-15 05:53:00,30.9,30.2,30.04,SE,126,0.0,0.0,97,0.00,,,0.00,meteohub,2013-02-15 10:53:00,
2013-02-15 05:58:00,30.7,30.0,30.04,SE,126,0.0,0.0,97,0.00,,,0.00,meteohub,2013-02-15 10:58:00,
2013-02-15 06:03:00,30.6,29.5,30.04,SE,126,0.0,0.0,96,0.00,,,0.00,meteohub,2013-02-15 11:03:00,
2013-02-15 06:08:00,30.4,29.3,30.04,SE,126,0.0,0.0,96,0.00,,,0.00,meteohub,2013-02-15 11:08:00,
2013-02-15 06:13:00,30.2,29.1,30.05,SE,126,0.0,0.0,96,0.00,,,0.00,meteohub,2013-02-15 11:13:00,
2013-02-15 06:18:00,30.2,29.1,30.05,SE,126,0.0,0.0,96,0.00,,,0.00,meteohub,2013-02-15 11:18:00,
2013-02-15 06:23:00,30.2,29.1,30.05,SE,126,0.0,0.0,96,0.00,,,0.00,meteohub,2013-02-15 11:23:00,
2013-02-15 06:28:00,30.2,29.1,30.05,SE,126,0.0,0.0,96,0.00,,,0.00,meteohub,2013-02-15 11:28:00,
2013-02-15 06:33:00,30.2,29.1,30.05,SE,126,0.0,0.0,96,0.00,,,0.00,meteohub,2013-02-15 11:33:00,
2013-02-15 06:38:00,30.4,29.7,30.05,SE,126,0.0,0.0,97,0.00,,,0.00,meteohub,2013-02-15 11:38:00,
2013-02-15 06:43:00,30.6,29.8,30.05,SE,126,0.0,0.0,97,0.00,,,0.00,meteohub,2013-02-15 11:43:00,
2013-02-15 06:48:00,30.6,29.8,30.06,SE,126,0.0,0.0,97,0.00,,,0.00,meteohub,2013-02-15 11:48:00,
2013-02-15 06:53:00,30.4,29.7,30.06,SE,126,0.0,0.0,97,0.00,,,0.00,meteohub,2013-02-15 11:53:00,
2013-02-15 06:58:00,30.0,28.9,30.06,SE,126,0.0,0.0,96,0.00,,,0.00,meteohub,2013-02-15 11:58:00,
2013-02-15 07:03:00,29.8,28.8,30.06,SE,126,0.0,0.0,96,0.00,,,0.00,meteohub,2013-02-15 12:03:00,
2013-02-15 07:08:00,29.7,28.9,30.06,SE,126,0.0,0.0,97,0.00,,,0.00,meteohub,2013-02-15 12:08:00,
2013-02-15 07:13:00,29.7,28.9,30.06,SE,126,0.0,0.0,97,0.00,,,0.00,meteohub,2013-02-15 12:13:00,
2013-02-15 07:18:00,29.7,28.9,30.06,SE,126,0.0,0.0,97,0.00,,,0.00,meteohub,2013-02-15 12:18:00,
2013-02-15 07:23:00,29.7,28.9,30.06,SE,126,0.0,0.0,97,0.00,,,0.00,meteohub,2013-02-15 12:23:00,
2013-02-15 07:28:00,29.7,28.9,30.06,SE,126,0.0,0.0,97,0.00,,,0.00,meteohub,2013-02-15 12:28:00,
2013-02-15 07:33:00,30.0,29.3,30.06,SE,126,0.0,0.0,97,0.00,,,0.00,meteohub,2013-02-15 12:33:00,
2013-02-15 07:38:00,30.2,29.5,30.06,SE,126,0.0,0.0,97,0.00,,,0.00,meteohub,2013-02-15 12:38:00,
2013-02-15 07:43:00,30.7,30.0,30.07,SE,126,0.0,0.0,97,0.00,,,0.00,meteohub,2013-02-15 12:43:00,
2013-02-15 07:48:00,31.8,31.1,30.07,SE,126,0.0,0.0,97,0.00,,,0.00,meteohub,2013-02-15 12:48:00,
2013-02-15 07:53:00,33.3,32.7,30.07,SE,126,0.0,0.0,98,0.00,,,0.00,meteohub,2013-02-15 12:53:00,
2013-02-15 07:58:00,34.0,33.4,30.07,SE,126,0.0,0.0,98,0.00,,,0.00,meteohub,2013-02-15 12:58:00,
2013-02-15 08:03:00,35.2,34.7,30.07,SE,126,0.0,0.0,98,0.00,,,0.00,meteohub,2013-02-15 13:03:00,
2013-02-15 08:08:00,36.1,35.6,30.07,SE,126,0.0,0.0,98,0.00,,,0.01,meteohub,2013-02-15 13:08:00,
2013-02-15 08:13:00,37.2,36.7,30.08,SE,126,0.0,0.0,98,0.01,,,0.01,meteohub,2013-02-15 13:13:00,
2013-02-15 08:18:00,37.9,37.4,30.08,SE,126,0.0,0.0,98,0.01,,,0.01,meteohub,2013-02-15 13:18:00,
2013-02-15 08:23:00,38.8,38.3,30.08,SE,126,0.0,0.0,98,0.01,,,0.01,meteohub,2013-02-15 13:23:00,
2013-02-15 08:28:00,40.1,39.6,30.08,SE,126,0.0,0.0,98,0.01,,,0.01,meteohub,2013-02-15 13:28:00,
2013-02-15 08:33:00,41.0,40.5,30.08,SE,126,0.0,0.0,98,0.01,,,0.01,meteohub,2013-02-15 13:33:00,
2013-02-15 08:38:00,41.4,40.8,30.08,SE,126,0.0,0.0,98,0.01,,,0.01,meteohub,2013-02-15 13:38:00,
2013-02-15 08:43:00,41.5,41.0,30.08,NNW,333,0.0,0.0,98,0.01,,,0.01,meteohub,2013-02-15 13:43:00,
2013-02-15 08:48:00,42.1,41.5,30.08,NNW,333,0.0,0.0,98,0.01,,,0.01,meteohub,2013-02-15 13:48:00,
2013-02-15 08:53:00,42.6,42.1,30.08,NNW,333,0.0,0.0,98,0.01,,,0.01,meteohub,2013-02-15 13:53:00,
2013-02-15 08:58:00,43.0,42.4,30.08,NW,326,0.0,0.0,98,0.01,,,0.01,meteohub,2013-02-15 13:58:00,
2013-02-15 09:03:00,43.5,43.0,30.08,West,273,0.0,0.0,98,0.01,,,0.01,meteohub,2013-02-15 14:03:00,
2013-02-15 09:08:00,44.4,43.7,30.08,West,273,0.0,0.0,97,0.01,,,0.01,meteohub,2013-02-15 14:08:00,
2013-02-15 09:13:00,45.1,44.1,30.08,NW,306,0.0,0.0,96,0.00,,,0.01,meteohub,2013-02-15 14:13:00,
2013-02-15 09:18:00,45.9,43.9,30.08,West,266,1.0,0.0,93,0.00,,,0.01,meteohub,2013-02-15 14:18:00,
2013-02-15 09:23:00,46.6,44.1,30.08,West,270,0.0,0.0,91,0.00,,,0.01,meteohub,2013-02-15 14:23:00,
2013-02-15 09:28:00,47.5,44.4,30.08,West,270,0.0,4.0,89,0.00,,,0.01,meteohub,2013-02-15 14:28:00,
2013-02-15 09:33:00,48.4,44.1,30.08,NNW,338,0.0,4.0,85,0.00,,,0.01,meteohub,2013-02-15 14:33:00,
2013-02-15 09:38:00,48.9,44.2,30.08,West,275,0.0,1.0,84,0.00,,,0.01,meteohub,2013-02-15 14:38:00,
2013-02-15 09:43:00,49.5,43.2,30.08,ENE,72,0.0,1.0,79,0.00,,,0.01,meteohub,2013-02-15 14:43:00,
2013-02-15 09:48:00,49.8,43.2,30.08,West,275,0.0,3.0,78,0.00,,,0.01,meteohub,2013-02-15 14:48:00,
2013-02-15 09:53:00,50.4,43.3,30.08,NNW,342,0.0,3.0,77,0.00,,,0.01,meteohub,2013-02-15 14:53:00,
2013-02-15 09:58:00,51.1,43.5,30.08,ENE,65,0.0,4.0,75,0.00,,,0.01,meteohub,2013-02-15 14:58:00,
2013-02-15 10:03:00,52.0,43.5,30.08,NW,322,0.0,4.0,73,0.00,,,0.01,meteohub,2013-02-15 15:03:00,
2013-02-15 10:08:00,52.2,42.6,30.08,West,265,0.0,4.0,70,0.00,,,0.01,meteohub,2013-02-15 15:08:00,
2013-02-15 10:13:00,52.5,43.3,30.07,WSW,244,0.0,4.0,71,0.00,,,0.01,meteohub,2013-02-15 15:13:00,
2013-02-15 10:18:00,53.1,42.4,30.07,SSE,161,0.0,6.0,67,0.00,,,0.01,meteohub,2013-02-15 15:18:00,
2013-02-15 10:23:00,53.6,43.3,30.07,NNW,329,0.0,6.0,68,0.00,,,0.01,meteohub,2013-02-15 15:23:00,
2013-02-15 10:28:00,54.1,42.3,30.07,ESE,116,0.0,4.0,64,0.00,,,0.01,meteohub,2013-02-15 15:28:00,
2013-02-15 10:33:00,54.9,41.2,30.06,West,264,0.0,4.0,60,0.00,,,0.01,meteohub,2013-02-15 15:33:00,
2013-02-15 10:38:00,54.7,41.9,30.07,North,355,0.0,4.0,62,0.00,,,0.01,meteohub,2013-02-15 15:38:00,
2013-02-15 10:43:00,55.0,41.4,30.07,South,178,0.0,4.0,60,0.00,,,0.01,meteohub,2013-02-15 15:43:00,
2013-02-15 10:48:00,55.0,41.0,30.07,East,98,0.0,8.0,59,0.00,,,0.01,meteohub,2013-02-15 15:48:00,
2013-02-15 10:53:00,55.2,41.2,30.07,East,91,0.0,8.0,59,0.00,,,0.01,meteohub,2013-02-15 15:53:00,
2013-02-15 10:58:00,55.6,42.3,30.07,East,94,0.0,8.0,61,0.00,,,0.01,meteohub,2013-02-15 15:58:00,
2013-02-15 11:03:00,56.1,41.5,30.07,East,86,0.0,8.0,58,0.00,,,0.01,meteohub,2013-02-15 16:03:00,
2013-02-15 11:08:00,55.9,37.6,30.06,East,101,0.0,7.0,50,0.00,,,0.01,meteohub,2013-02-15 16:08:00,
2013-02-15 11:14:00,55.8,38.8,30.06,East,92,5.0,7.0,53,0.00,,,0.01,meteohub,2013-02-15 16:14:00,
2013-02-15 11:19:00,55.2,37.9,30.06,ESE,121,0.0,8.0,52,0.00,,,0.01,meteohub,2013-02-15 16:19:00,
2013-02-15 11:23:00,55.6,39.7,30.06,WNW,296,0.0,8.0,55,0.00,,,0.01,meteohub,2013-02-15 16:23:00,
2013-02-15 11:28:00,56.5,39.6,30.06,NE,49,2.0,8.0,53,0.00,,,0.01,meteohub,2013-02-15 16:28:00,
2013-02-15 11:34:00,56.5,39.6,30.05,East,81,0.0,8.0,53,0.00,,,0.01,meteohub,2013-02-15 16:34:00,
2013-02-15 11:39:00,56.5,39.6,30.05,East,101,0.0,5.0,53,0.00,,,0.01,meteohub,2013-02-15 16:39:00,
2013-02-15 11:43:00,56.8,39.4,30.05,South,189,0.0,5.0,52,0.00,,,0.01,meteohub,2013-02-15 16:43:00,
2013-02-15 11:48:00,57.2,38.7,30.05,SSW,203,0.0,5.0,50,0.00,,,0.01,meteohub,2013-02-15 16:48:00,
2013-02-15 11:54:00,57.2,39.7,30.05,NE,54,0.0,5.0,52,0.00,,,0.01,meteohub,2013-02-15 16:54:00,
2013-02-15 11:58:00,56.8,38.5,30.05,East,90,6.0,6.0,50,0.00,,,0.01,meteohub,2013-02-15 16:58:00,
2013-02-15 12:03:00,56.7,38.3,30.05,East,86,0.0,6.0,50,0.00,,,0.01,meteohub,2013-02-15 17:03:00,
2013-02-15 12:08:00,56.7,38.7,30.04,ENE,78,5.0,6.0,51,0.00,,,0.01,meteohub,2013-02-15 17:08:00,
2013-02-15 12:14:00,56.8,38.5,30.04,ESE,109,2.0,9.0,50,0.00,,,0.01,meteohub,2013-02-15 17:14:00,
2013-02-15 12:19:00,56.5,36.5,30.04,East,93,7.0,9.0,47,0.00,,,0.01,meteohub,2013-02-15 17:19:00,
2013-02-15 12:24:00,56.5,37.6,30.04,ESE,113,4.0,12.0,49,0.00,,,0.01,meteohub,2013-02-15 17:24:00,
2013-02-15 12:29:00,55.9,34.3,30.04,SE,134,7.0,12.0,44,0.00,,,0.01,meteohub,2013-02-15 17:29:00,
2013-02-15 12:34:00,55.9,32.0,30.04,ESE,115,2.0,12.0,40,0.00,,,0.01,meteohub,2013-02-15 17:34:00,
2013-02-15 12:39:00,55.9,34.3,30.04,ENE,74,8.0,13.0,44,0.00,,,0.01,meteohub,2013-02-15 17:39:00,
2013-02-15 12:44:00,55.2,33.1,30.04,East,79,2.0,13.0,43,0.00,,,0.01,meteohub,2013-02-15 17:44:00,
2013-02-15 12:49:00,55.4,34.3,30.04,ESE,104,9.0,14.0,45,0.00,,,0.01,meteohub,2013-02-15 17:49:00,
2013-02-15 12:54:00,55.0,34.2,30.04,East,101,6.0,14.0,45,0.00,,,0.01,meteohub,2013-02-15 17:54:00,
2013-02-15 12:59:00,55.2,35.4,30.03,ENE,76,2.0,14.0,47,0.00,,,0.01,meteohub,2013-02-15 17:59:00,
2013-02-15 13:04:00,55.2,32.5,30.03,ENE,76,4.0,14.0,42,0.00,,,0.01,meteohub,2013-02-15 18:04:00,
2013-02-15 13:09:00,55.2,35.4,30.03,East,94,5.0,13.0,47,0.00,,,0.01,meteohub,2013-02-15 18:09:00,
2013-02-15 13:14:00,55.0,33.4,30.03,East,98,12.0,13.0,44,0.00,,,0.01,meteohub,2013-02-15 18:14:00,
2013-02-15 13:19:00,54.9,35.1,30.02,ENE,78,3.0,13.0,47,0.00,,,0.01,meteohub,2013-02-15 18:19:00,
2013-02-15 13:24:00,55.2,35.4,30.03,ENE,75,7.0,13.0,47,0.00,,,0.01,meteohub,2013-02-15 18:24:00,
2013-02-15 13:29:00,55.0,36.1,30.03,ESE,102,0.0,12.0,49,0.00,,,0.01,meteohub,2013-02-15 18:29:00,
2013-02-15 13:34:00,55.4,35.4,30.02,ESE,104,2.0,12.0,47,0.00,,,0.01,meteohub,2013-02-15 18:34:00,
2013-02-15 13:39:00,55.4,35.4,30.02,NNE,30,1.0,12.0,47,0.00,,,0.01,meteohub,2013-02-15 18:39:00,
2013-02-15 13:44:00,55.6,37.2,30.02,ESE,117,5.0,12.0,50,0.00,,,0.01,meteohub,2013-02-15 18:44:00,
2013-02-15 13:49:00,55.8,36.3,30.01,NE,34,0.0,8.0,48,0.00,,,0.01,meteohub,2013-02-15 18:49:00,
2013-02-15 13:54:00,56.1,35.6,30.01,ENE,78,0.0,8.0,46,0.00,,,0.01,meteohub,2013-02-15 18:54:00,
2013-02-15 13:59:00,55.8,35.8,30.01,NE,53,5.0,9.0,47,0.00,,,0.01,meteohub,2013-02-15 18:59:00,
2013-02-15 14:04:00,55.4,36.0,30.01,East,101,4.0,9.0,48,0.00,,,0.01,meteohub,2013-02-15 19:04:00,
2013-02-15 14:09:00,55.6,36.7,30.01,ENE,72,5.0,11.0,49,0.00,,,0.01,meteohub,2013-02-15 19:09:00,
2013-02-15 14:14:00,55.0,36.1,30.01,East,92,1.0,11.0,49,0.00,,,0.01,meteohub,2013-02-15 19:14:00,
2013-02-15 14:19:00,55.0,36.7,30.01,ENE,74,1.0,11.0,50,0.00,,,0.01,meteohub,2013-02-15 19:19:00,
2013-02-15 14:24:00,55.0,35.8,30.00,East,88,2.0,11.0,48,0.00,,,0.01,meteohub,2013-02-15 19:24:00,
2013-02-15 14:29:00,55.2,36.9,30.00,ESE,117,5.0,12.0,50,0.00,,,0.01,meteohub,2013-02-15 19:29:00,
2013-02-15 14:34:00,55.0,36.1,30.00,East,99,2.0,12.0,49,0.00,,,0.01,meteohub,2013-02-15 19:34:00,
2013-02-15 14:39:00,55.0,37.2,29.99,West,277,0.0,9.0,51,0.00,,,0.01,meteohub,2013-02-15 19:39:00,
2013-02-15 14:44:00,55.8,37.9,29.99,South,169,1.0,9.0,51,0.00,,,0.01,meteohub,2013-02-15 19:44:00,
2013-02-15 14:49:00,55.8,37.9,29.99,SE,140,0.0,7.0,51,0.00,,,0.01,meteohub,2013-02-15 19:49:00,
2013-02-15 14:54:00,55.6,37.2,29.99,ESE,103,0.0,7.0,50,0.00,,,0.01,meteohub,2013-02-15 19:54:00,
2013-02-15 14:59:00,55.9,37.6,29.99,SE,124,1.0,7.0,50,0.00,,,0.01,meteohub,2013-02-15 19:59:00,
2013-02-15 15:04:00,55.6,38.3,29.99,East,94,2.0,7.0,52,0.00,,,0.01,meteohub,2013-02-15 20:04:00,
2013-02-15 15:09:00,55.4,38.1,29.99,East,88,2.0,8.0,52,0.00,,,0.01,meteohub,2013-02-15 20:09:00,
2013-02-15 15:14:00,55.4,38.1,29.98,East,84,1.0,8.0,52,0.00,,,0.01,meteohub,2013-02-15 20:14:00,
2013-02-15 15:19:00,55.2,37.9,29.98,ESE,107,1.0,7.0,52,0.00,,,0.01,meteohub,2013-02-15 20:19:00,
2013-02-15 15:24:00,55.2,38.3,29.98,ESE,117,4.0,7.0,53,0.00,,,0.01,meteohub,2013-02-15 20:24:00,
2013-02-15 15:29:00,55.6,38.7,29.98,ENE,78,0.0,7.0,53,0.00,,,0.01,meteohub,2013-02-15 20:29:00,
2013-02-15 15:34:00,55.2,38.3,29.97,ESE,115,2.0,7.0,53,0.00,,,0.01,meteohub,2013-02-15 20:34:00,
2013-02-15 15:39:00,55.0,38.7,29.97,ESE,103,4.0,7.0,54,0.00,,,0.01,meteohub,2013-02-15 20:39:00,
2013-02-15 15:44:00,55.0,39.6,29.97,ESE,114,2.0,7.0,56,0.00,,,0.01,meteohub,2013-02-15 20:44:00,
2013-02-15 15:49:00,54.7,40.3,29.97,East,86,3.0,7.0,58,0.00,,,0.01,meteohub,2013-02-15 20:49:00,
2013-02-15 15:54:00,54.5,40.1,29.97,ESE,117,2.0,7.0,58,0.00,,,0.01,meteohub,2013-02-15 20:54:00,
2013-02-15 15:59:00,54.9,41.2,29.97,SSE,155,0.0,8.0,60,0.00,,,0.01,meteohub,2013-02-15 20:59:00,
2013-02-15 16:04:00,55.4,40.5,29.97,South,174,4.0,8.0,57,0.00,,,0.01,meteohub,2013-02-15 21:04:00,
2013-02-15 16:09:00,55.8,40.8,29.97,South,183,1.0,6.0,57,0.00,,,0.01,meteohub,2013-02-15 21:09:00,
2013-02-15 16:14:00,55.8,40.8,29.97,East,100,5.0,6.0,57,0.00,,,0.01,meteohub,2013-02-15 21:14:00,
2013-02-15 16:19:00,55.0,40.5,29.98,ESE,117,4.0,6.0,58,0.00,,,0.01,meteohub,2013-02-15 21:19:00,
2013-02-15 16:24:00,54.7,41.5,29.98,South,189,1.0,6.0,61,0.00,,,0.01,meteohub,2013-02-15 21:24:00,
2013-02-15 16:29:00,54.9,41.7,29.97,South,185,5.0,7.0,61,0.00,,,0.01,meteohub,2013-02-15 21:29:00,
2013-02-15 16:34:00,55.0,40.5,29.97,SE,127,0.0,7.0,58,0.00,,,0.01,meteohub,2013-02-15 21:34:00,
2013-02-15 16:39:00,55.2,41.2,29.97,SE,145,0.0,7.0,59,0.00,,,0.01,meteohub,2013-02-15 21:39:00,
2013-02-15 16:44:00,54.9,41.7,29.97,SSE,155,1.0,7.0,61,0.00,,,0.01,meteohub,2013-02-15 21:44:00,
2013-02-15 16:49:00,55.0,41.0,29.97,SSE,151,2.0,9.0,59,0.00,,,0.01,meteohub,2013-02-15 21:49:00,
2013-02-15 16:54:00,54.7,41.5,29.97,NE,42,0.0,9.0,61,0.00,,,0.01,meteohub,2013-02-15 21:54:00,
2013-02-15 16:59:00,54.1,41.0,29.97,East,88,3.0,9.0,61,0.00,,,0.01,meteohub,2013-02-15 21:59:00,
2013-02-15 17:04:00,53.4,41.2,29.97,SE,140,0.0,9.0,63,0.00,,,0.01,meteohub,2013-02-15 22:04:00,
2013-02-15 17:09:00,53.4,41.2,29.97,South,182,1.0,8.0,63,0.00,,,0.01,meteohub,2013-02-15 22:09:00,
2013-02-15 17:14:00,53.2,40.6,29.97,East,95,0.0,8.0,62,0.00,,,0.01,meteohub,2013-02-15 22:14:00,
2013-02-15 17:19:00,53.1,40.8,29.96,SSW,202,0.0,5.0,63,0.00,,,0.01,meteohub,2013-02-15 22:19:00,
2013-02-15 17:24:00,53.1,41.5,29.96,SSW,204,2.0,5.0,65,0.00,,,0.01,meteohub,2013-02-15 22:24:00,
2013-02-15 17:29:00,52.5,41.5,29.96,South,178,2.0,7.0,66,0.00,,,0.01,meteohub,2013-02-15 22:29:00,
2013-02-15 17:34:00,52.3,41.7,29.96,SSW,192,3.0,7.0,67,0.00,,,0.01,meteohub,2013-02-15 22:34:00,
2013-02-15 17:39:00,52.0,41.4,29.96,SSW,194,0.0,7.0,67,0.00,,,0.01,meteohub,2013-02-15 22:39:00,
2013-02-15 17:44:00,51.4,41.2,29.96,SSE,168,0.0,7.0,68,0.00,,,0.01,meteohub,2013-02-15 22:44:00,
2013-02-15 17:49:00,51.3,41.4,29.96,South,179,0.0,4.0,69,0.00,,,0.01,meteohub,2013-02-15 22:49:00,
2013-02-15 17:54:00,50.9,41.5,29.96,South,180,0.0,4.0,70,0.00,,,0.01,meteohub,2013-02-15 22:54:00,
2013-02-15 17:59:00,50.5,41.2,29.96,South,180,0.0,3.0,70,0.00,,,0.01,meteohub,2013-02-15 22:59:00,
2013-02-15 18:04:00,50.2,40.8,29.96,South,180,0.0,3.0,70,0.00,,,0.01,meteohub,2013-02-15 23:04:00,
2013-02-15 18:09:00,49.8,40.8,29.96,South,190,0.0,2.0,71,0.00,,,0.01,meteohub,2013-02-15 23:09:00,
2013-02-15 18:14:00,49.1,41.5,29.96,South,190,0.0,2.0,75,0.00,,,0.01,meteohub,2013-02-15 23:14:00,
2013-02-15 18:19:00,48.2,41.7,29.96,South,190,0.0,2.0,78,0.00,,,0.01,meteohub,2013-02-15 23:19:00,
2013-02-15 18:24:00,47.5,41.5,29.96,South,190,0.0,0.0,80,0.00,,,0.01,meteohub,2013-02-15 23:24:00,
2013-02-15 18:29:00,46.8,41.2,29.96,South,190,0.0,0.0,81,0.00,,,0.01,meteohub,2013-02-15 23:29:00,
2013-02-15 18:34:00,46.0,40.3,29.96,South,190,0.0,0.0,80,0.00,,,0.01,meteohub,2013-02-15 23:34:00,
2013-02-15 18:39:00,45.5,40.1,29.96,South,190,0.0,0.0,81,0.00,,,0.01,meteohub,2013-02-15 23:39:00,
2013-02-15 18:44:00,45.0,40.5,29.96,South,190,0.0,0.0,84,0.00,,,0.01,meteohub,2013-02-15 23:44:00,
2013-02-15 18:49:00,44.4,40.3,29.96,South,190,0.0,0.0,85,0.00,,,0.01,meteohub,2013-02-15 23:49:00,
2013-02-15 18:54:00,44.1,40.1,29.96,South,190,0.0,0.0,86,0.00,,,0.01,meteohub,2013-02-15 23:54:00,
2013-02-15 18:59:00,43.3,39.7,29.96,South,190,0.0,0.0,87,0.00,,,0.01,meteohub,2013-02-15 23:59:00,
2013-02-15 19:04:00,42.8,39.6,29.96,South,190,0.0,0.0,88,0.00,,,0.01,meteohub,2013-02-16 00:04:00,
2013-02-15 19:09:00,42.4,39.4,29.96,South,190,0.0,0.0,89,0.00,,,0.01,meteohub,2013-02-16 00:09:00,
2013-02-15 19:14:00,42.3,39.6,29.97,South,190,0.0,0.0,90,0.00,,,0.01,meteohub,2013-02-16 00:14:00,
2013-02-15 19:19:00,42.3,39.6,29.97,South,190,0.0,0.0,90,0.00,,,0.01,meteohub,2013-02-16 00:19:00,
2013-02-15 19:24:00,42.3,39.7,29.97,South,190,0.0,0.0,91,0.00,,,0.01,meteohub,2013-02-16 00:24:00,
2013-02-15 19:29:00,41.9,39.4,29.97,South,190,0.0,0.0,91,0.00,,,0.01,meteohub,2013-02-16 00:29:00,
2013-02-15 19:34:00,41.5,39.2,29.97,South,190,0.0,0.0,91,0.00,,,0.01,meteohub,2013-02-16 00:34:00,
2013-02-15 19:39:00,41.4,39.0,29.98,South,190,0.0,0.0,91,0.00,,,0.01,meteohub,2013-02-16 00:39:00,
2013-02-15 19:44:00,41.0,38.8,29.98,South,190,0.0,0.0,92,0.00,,,0.01,meteohub,2013-02-16 00:44:00,
2013-02-15 19:49:00,40.8,38.5,29.98,South,190,0.0,0.0,91,0.00,,,0.01,meteohub,2013-02-16 00:49:00,
2013-02-15 19:54:00,40.5,38.1,29.97,South,190,0.0,0.0,91,0.00,,,0.01,meteohub,2013-02-16 00:54:00,
2013-02-15 19:59:00,40.5,38.3,29.98,South,190,0.0,0.0,92,0.00,,,0.01,meteohub,2013-02-16 00:59:00,
2013-02-15 20:04:00,40.3,38.1,29.98,South,190,0.0,0.0,92,0.00,,,0.01,meteohub,2013-02-16 01:04:00,
2013-02-15 20:09:00,39.9,37.8,29.98,South,190,0.0,0.0,92,0.00,,,0.01,meteohub,2013-02-16 01:09:00,
2013-02-15 20:14:00,39.7,37.6,29.98,South,190,0.0,0.0,92,0.00,,,0.01,meteohub,2013-02-16 01:14:00,
2013-02-15 20:19:00,39.6,37.4,29.98,South,190,0.0,0.0,92,0.00,,,0.01,meteohub,2013-02-16 01:19:00,
2013-02-15 20:24:00,39.2,37.0,29.98,South,190,0.0,0.0,92,0.00,,,0.01,meteohub,2013-02-16 01:24:00,
2013-02-15 20:29:00,38.8,36.7,29.98,South,190,0.0,0.0,92,0.00,,,0.01,meteohub,2013-02-16 01:29:00,
2013-02-15 20:34:00,38.7,36.5,29.97,South,190,0.0,0.0,92,0.00,,,0.01,meteohub,2013-02-16 01:34:00,
2013-02-15 20:39:00,38.3,36.1,29.98,South,190,0.0,0.0,92,0.00,,,0.01,meteohub,2013-02-16 01:39:00,
2013-02-15 20:44:00,38.1,36.0,29.98,South,190,0.0,0.0,92,0.00,,,0.01,meteohub,2013-02-16 01:44:00,
2013-02-15 20:49:00,37.9,35.8,29.97,South,190,0.0,0.0,92,0.00,,,0.01,meteohub,2013-02-16 01:49:00,
2013-02-15 20:54:00,37.8,36.0,29.97,South,190,0.0,0.0,93,0.00,,,0.01,meteohub,2013-02-16 01:54:00,
2013-02-15 20:59:00,37.9,36.1,29.97,South,190,0.0,0.0,93,0.00,,,0.01,meteohub,2013-02-16 01:59:00,
2013-02-15 21:04:00,37.9,36.3,29.97,South,190,0.0,0.0,94,0.00,,,0.01,meteohub,2013-02-16 02:04:00,
2013-02-15 21:10:00,37.8,36.1,29.97,South,190,0.0,0.0,94,0.00,,,0.01,meteohub,2013-02-16 02:10:00,
2013-02-15 21:15:00,37.8,36.0,29.97,South,190,0.0,0.0,93,0.00,,,0.01,meteohub,2013-02-16 02:15:00,
2013-02-15 21:20:00,37.4,35.6,29.97,South,190,0.0,0.0,93,0.00,,,0.01,meteohub,2013-02-16 02:20:00,
2013-02-15 21:25:00,37.0,35.2,29.97,South,190,0.0,0.0,93,0.00,,,0.01,meteohub,2013-02-16 02:25:00,
2013-02-15 21:30:00,36.9,35.1,29.97,South,190,0.0,0.0,93,0.00,,,0.01,meteohub,2013-02-16 02:30:00,
2013-02-15 21:35:00,36.5,34.7,29.97,South,190,0.0,0.0,93,0.00,,,0.01,meteohub,2013-02-16 02:35:00,
2013-02-15 21:40:00,36.1,34.3,29.97,South,190,0.0,0.0,93,0.00,,,0.01,meteohub,2013-02-16 02:40:00,
2013-02-15 21:45:00,36.0,34.2,29.96,South,190,0.0,0.0,93,0.00,,,0.01,meteohub,2013-02-16 02:45:00,
2013-02-15 21:50:00,35.4,33.6,29.96,South,190,0.0,0.0,93,0.00,,,0.01,meteohub,2013-02-16 02:50:00,
2013-02-15 21:55:00,35.2,33.4,29.96,South,190,0.0,0.0,93,0.00,,,0.01,meteohub,2013-02-16 02:55:00,
2013-02-15 22:00:00,35.1,33.3,29.96,South,190,0.0,0.0,93,0.00,,,0.01,meteohub,2013-02-16 03:00:00,
2013-02-15 22:05:00,34.7,32.9,29.96,South,190,0.0,0.0,93,0.00,,,0.01,meteohub,2013-02-16 03:05:00,
2013-02-15 22:10:00,34.5,32.7,29.96,South,190,0.0,0.0,93,0.00,,,0.01,meteohub,2013-02-16 03:10:00,
2013-02-15 22:15:00,34.3,32.5,29.96,South,190,0.0,0.0,93,0.00,,,0.01,meteohub,2013-02-16 03:15:00,
2013-02-15 22:20:00,34.3,32.7,29.96,South,190,0.0,0.0,94,0.00,,,0.01,meteohub,2013-02-16 03:20:00,
2013-02-15 22:25:00,34.2,32.4,29.96,South,190,0.0,0.0,93,0.00,,,0.01,meteohub,2013-02-16 03:25:00,
2013-02-15 22:30:00,34.0,32.4,29.96,South,190,0.0,0.0,94,0.00,,,0.01,meteohub,2013-02-16 03:30:00,
2013-02-15 22:35:00,34.0,32.4,29.96,South,190,0.0,0.0,94,0.00,,,0.01,meteohub,2013-02-16 03:35:00,
2013-02-15 22:40:00,34.2,32.5,29.96,South,190,0.0,0.0,94,0.00,,,0.01,meteohub,2013-02-16 03:40:00,
2013-02-15 22:45:00,34.3,33.1,29.96,South,190,0.0,0.0,95,0.00,,,0.01,meteohub,2013-02-16 03:45:00,
2013-02-15 22:50:00,34.3,33.1,29.96,South,190,0.0,0.0,95,0.00,,,0.01,meteohub,2013-02-16 03:50:00,
2013-02-15 22:55:00,34.5,33.3,29.96,South,190,0.0,0.0,95,0.00,,,0.01,meteohub,2013-02-16 03:55:00,
2013-02-15 23:00:00,34.5,33.3,29.96,South,190,0.0,0.0,95,0.00,,,0.01,meteohub,2013-02-16 04:00:00,
2013-02-15 23:05:00,34.5,33.3,29.96,South,190,0.0,0.0,95,0.00,,,0.01,meteohub,2013-02-16 04:05:00,
2013-02-15 23:10:00,34.7,33.4,29.96,South,190,0.0,0.0,95,0.00,,,0.01,meteohub,2013-02-16 04:10:00,
2013-02-15 23:15:00,34.9,33.6,29.96,South,190,0.0,0.0,95,0.00,,,0.01,meteohub,2013-02-16 04:15:00,
2013-02-15 23:20:00,34.9,33.6,29.96,South,190,0.0,0.0,95,0.00,,,0.01,meteohub,2013-02-16 04:20:00,
2013-02-15 23:25:00,34.5,33.3,29.96,South,190,0.0,0.0,95,0.00,,,0.01,meteohub,2013-02-16 04:25:00,
2013-02-15 23:30:00,34.5,33.3,29.95,South,190,0.0,0.0,95,0.00,,,0.01,meteohub,2013-02-16 04:30:00,
2013-02-15 23:35:00,34.3,33.1,29.95,South,190,0.0,0.0,95,0.00,,,0.01,meteohub,2013-02-16 04:35:00,
2013-02-15 23:40:00,34.2,32.9,29.95,South,190,0.0,0.0,95,0.00,,,0.01,meteohub,2013-02-16 04:40:00,
2013-02-15 23:45:00,33.6,32.4,29.95,South,190,0.0,0.0,95,0.00,,,0.01,meteohub,2013-02-16 04:45:00,
2013-02-15 23:50:00,33.4,31.8,29.95,South,190,0.0,0.0,94,0.00,,,0.01,meteohub,2013-02-16 04:50:00,
2013-02-15 23:55:00,33.3,32.0,29.94,South,190,0.0,0.0,95,0.00,,,0.01,meteohub,2013-02-16 04:55:00,